Overview Statistics Trail Chart Weather Telemetry Raw packets
 

This is the latest recevied packets stored in our database for station/object OE6LME-2. If no packets are shown the sender has not sent any packets the latest 24 hours.

If you compare the raw packets with similar data from other websites it may differ (especially the path), the reason is that we are not collecting packets from the same APRS-IS servers. Each APRS-IS server performes duplicate filtering, and which packet that is considered to be a duplicate may differ depending on which APRS-IS server you receive your data from.

<< 1 2 3 4 >>

1777875085: OE6LME-2>APRSMC,TCPIP*,qAR,OE6XWG-12::OE6LME-2 :PARM.Press,Temp.in,Hum,QNH,Temp.out,track,-,-,-,-,-,-,-

1777875085: OE6LME-2>APRSMC,TCPIP*,qAR,OE6XWG-12:T#411,951.4,22.2,36.9,1017.0,0.0,10000000

1777875085: OE6LME-2>APRSMC,TCPIP*,qAR,OE6XWG-12::OE6LME-2 :UNIT.hPa,C deg,%,hPa,C deg,Y/N,O/N,O/N,O/N,O/N,O/N,O/N,O/N

1777875085: OE6LME-2>APRSMC,TCPIP*,qAR,OE6XWG-12::OE6LME-2 :EQNS.0,1,0,0,1,0,0,1,0,0,1,0,0,1,0

1777875085: OE6LME-2>APRSMC,TCPIP*,qAR,OE6XWG-12:!4639.86N/01514.43E#/B=100/A=001795

1777874887: OE6LME-2>APRSMC,TCPIP*,qAR,OE6XWG-12:T#410,951.4,22.4,36.9,1017.0,0.0,10000000

1777874887: OE6LME-2>APRSMC,TCPIP*,qAR,OE6XWG-12:!4639.85N/01514.44E#/B=100/A=001850

1777874548: OE6LME-2>APRSMC,TCPIP*,qAR,OE6XWG-12:T#409,951.3,22.6,36.2,1016.8,0.0,10000000

1777874548: OE6LME-2>APRSMC,TCPIP*,qAR,OE6XWG-12:!4639.74N/01514.48E#/B=100/A=001886

1777874488: OE6LME-2>APRSMC,TCPIP*,qAR,OE6XWG-12:T#408,951.4,22.9,36.1,1016.8,0.0,10000000

1777874488: OE6LME-2>APRSMC,TCPIP*,qAR,OE6XWG-12:!4639.83N/01514.44E#/B=100/A=001886

1777874450: OE6LME-2>APRSMC,TCPIP*,qAR,OE6OCG-9:T#407,951.3,23.1,35.8,1016.7,0.0,10000000

1777874438: OE6LME-2>APRSMC,TCPIP*,qAR,OE6XWG-12:!4639.85N/01514.44E#/B=100/A=001886

1777874438: OE6LME-2>APRSMC,TCPIP*,qAR,OE6XWG-12:T#406,951.3,22.9,36.1,1016.7,0.0,10000000

1777874349: OE6LME-2>APRSMC,TCPIP*,qAR,OE6XWG-12:T#405,951.3,23.1,35.8,1016.7,0.0,10000000

1777874349: OE6LME-2>APRSMC,TCPIP*,qAR,OE6XWG-12:!4639.83N/01514.44E#/B=100/A=001886

1777874263: OE6LME-2>APRSMC,TCPIP*,qAR,OE6OCG-9:T#404,951.3,23.2,35.8,1016.7,0.0,10000000

1777874263: OE6LME-2>APRSMC,TCPIP*,qAR,OE6OCG-9:!4639.87N/01514.46E#/B=100/A=001890

1777874256: OE6LME-2>APRSMC,TCPIP*,qAR,OE6HKE-12:T#403,951.3,23.2,35.6,1016.7,0.0,10000000

1777874256: OE6LME-2>APRSMC,TCPIP*,qAR,OE6HKE-12:!4639.86N/01514.44E#/B=100/A=001890

1777874134: OE6LME-2>APRSMC,TCPIP*,qAR,OE6XWG-12:T#402,951.3,23.3,35.7,1016.7,0.0,10000000

1777874134: OE6LME-2>APRSMC,TCPIP*,qAR,OE6XWG-12:!4639.86N/01514.45E#/B=100/A=001909

1777874022: OE6LME-2>APRSMC,TCPIP*,qAR,OE6XWG-12::OE6LME-2 :PARM.Press,Temp.in,Hum,QNH,Temp.out,track,-,-,-,-,-,-,-

1777874022: OE6LME-2>APRSMC,TCPIP*,qAR,OE6XWG-12::OE6LME-2 :UNIT.hPa,C deg,%,hPa,C deg,Y/N,O/N,O/N,O/N,O/N,O/N,O/N,O/N

1777874022: OE6LME-2>APRSMC,TCPIP*,qAR,OE6XWG-12::OE6LME-2 :EQNS.0,1,0,0,1,0,0,1,0,0,1,0,0,1,0